sensor_id;sensor_type;location;lat;lon;timestamp;pressure;altitude;pressure_sealevel;temperature;humidity
61018;BME280;48171;51.550;5.434;2023-04-04T00:01:10;102960.91;;;2.29;73.97
61018;BME280;48171;51.550;5.434;2023-04-04T00:03:37;102973.16;;;2.30;73.28
61018;BME280;48171;51.550;5.434;2023-04-04T00:06:02;102973.06;;;2.29;73.15
61018;BME280;48171;51.550;5.434;2023-04-04T00:08:28;102971.16;;;2.26;73.11
61018;BME280;48171;51.550;5.434;2023-04-04T00:10:58;102973.75;;;2.26;73.60
61018;BME280;48171;51.550;5.434;2023-04-04T00:13:24;102976.28;;;2.25;73.21
61018;BME280;48171;51.550;5.434;2023-04-04T00:15:51;102979.78;;;2.25;73.75
61018;BME280;48171;51.550;5.434;2023-04-04T00:18:16;102977.91;;;2.23;73.39
61018;BME280;48171;51.550;5.434;2023-04-04T00:20:41;102985.81;;;2.24;73.44
61018;BME280;48171;51.550;5.434;2023-04-04T00:23:07;102981.31;;;2.22;73.26
61018;BME280;48171;51.550;5.434;2023-04-04T00:25:35;102981.13;;;2.18;73.58
61018;BME280;48171;51.550;5.434;2023-04-04T00:28:00;102980.13;;;2.16;73.75
61018;BME280;48171;51.550;5.434;2023-04-04T00:30:26;102979.41;;;2.19;73.20
61018;BME280;48171;51.550;5.434;2023-04-04T00:32:51;102978.44;;;2.17;73.67
61018;BME280;48171;51.550;5.434;2023-04-04T00:35:17;102980.22;;;2.18;73.56
61018;BME280;48171;51.550;5.434;2023-04-04T00:37:42;102974.81;;;2.15;73.08
61018;BME280;48171;51.550;5.434;2023-04-04T00:40:07;102990.47;;;2.15;73.13
61018;BME280;48171;51.550;5.434;2023-04-04T00:42:33;102977.84;;;2.08;73.97
61018;BME280;48171;51.550;5.434;2023-04-04T00:44:59;102983.16;;;2.09;72.90
61018;BME280;48171;51.550;5.434;2023-04-04T00:47:25;102992.69;;;2.09;73.96
61018;BME280;48171;51.550;5.434;2023-04-04T00:49:53;102987.38;;;2.07;73.38
61018;BME280;48171;51.550;5.434;2023-04-04T00:52:19;102981.16;;;2.05;74.00
61018;BME280;48171;51.550;5.434;2023-04-04T00:54:44;102981.16;;;2.05;73.69
61018;BME280;48171;51.550;5.434;2023-04-04T00:57:10;102985.50;;;2.05;74.36
61018;BME280;48171;51.550;5.434;2023-04-04T00:59:35;102977.56;;;2.03;73.67
61018;BME280;48171;51.550;5.434;2023-04-04T01:02:01;102984.50;;;2.03;73.93
61018;BME280;48171;51.550;5.434;2023-04-04T01:04:27;102986.09;;;2.00;74.15
61018;BME280;48171;51.550;5.434;2023-04-04T01:06:55;102986.91;;;1.99;73.92
61018;BME280;48171;51.550;5.434;2023-04-04T01:09:21;102982.28;;;1.95;73.80
61018;BME280;48171;51.550;5.434;2023-04-04T01:11:47;102980.50;;;1.94;74.03
61018;BME280;48171;51.550;5.434;2023-04-04T01:14:12;102974.19;;;1.91;74.54
61018;BME280;48171;51.550;5.434;2023-04-04T01:16:38;102974.19;;;1.91;74.50
61018;BME280;48171;51.550;5.434;2023-04-04T01:19:05;102971.31;;;1.86;74.88
61018;BME280;48171;51.550;5.434;2023-04-04T01:21:33;102969.38;;;1.84;74.79
61018;BME280;48171;51.550;5.434;2023-04-04T01:24:02;102960.66;;;1.83;75.62
61018;BME280;48171;51.550;5.434;2023-04-04T01:26:28;102967.50;;;1.81;76.16
61018;BME280;48171;51.550;5.434;2023-04-04T01:28:54;102961.28;;;1.79;75.87
61018;BME280;48171;51.550;5.434;2023-04-04T01:31:26;102960.19;;;1.75;75.69
61018;BME280;48171;51.550;5.434;2023-04-04T01:34:11;102965.13;;;1.71;76.33
61018;BME280;48171;51.550;5.434;2023-04-04T01:39:17;102951.31;;;1.58;76.62
61018;BME280;48171;51.550;5.434;2023-04-04T01:41:47;102958.31;;;1.59;76.61
61018;BME280;48171;51.550;5.434;2023-04-04T01:44:13;102950.22;;;1.55;76.74
61018;BME280;48171;51.550;5.434;2023-04-04T01:46:40;102952.41;;;1.49;76.79
61018;BME280;48171;51.550;5.434;2023-04-04T01:49:05;102955.75;;;1.46;77.69
61018;BME280;48171;51.550;5.434;2023-04-04T01:51:31;102955.53;;;1.43;77.97
61018;BME280;48171;51.550;5.434;2023-04-04T01:53:56;102952.75;;;1.40;78.21
61018;BME280;48171;51.550;5.434;2023-04-04T01:56:22;102958.56;;;1.36;78.11
61018;BME280;48171;51.550;5.434;2023-04-04T01:58:47;102941.94;;;1.34;78.23
61018;BME280;48171;51.550;5.434;2023-04-04T02:01:12;102950.53;;;1.33;78.30
61018;BME280;48171;51.550;5.434;2023-04-04T02:03:38;102942.66;;;1.31;77.95
61018;BME280;48171;51.550;5.434;2023-04-04T02:06:03;102948.63;;;1.30;78.80
61018;BME280;48171;51.550;5.434;2023-04-04T02:08:28;102945.03;;;1.28;79.26
61018;BME280;48171;51.550;5.434;2023-04-04T02:10:56;102947.53;;;1.27;79.03
61018;BME280;48171;51.550;5.434;2023-04-04T02:13:22;102951.84;;;1.26;78.57
61018;BME280;48171;51.550;5.434;2023-04-04T02:15:48;102956.06;;;1.24;78.57
61018;BME280;48171;51.550;5.434;2023-04-04T02:18:14;102955.84;;;1.21;78.37
61018;BME280;48171;51.550;5.434;2023-04-04T02:20:40;102952.03;;;1.16;78.37
61018;BME280;48171;51.550;5.434;2023-04-04T02:23:06;102953.84;;;1.17;78.19
61018;BME280;48171;51.550;5.434;2023-04-04T02:25:31;102954.53;;;1.14;78.58
61018;BME280;48171;51.550;5.434;2023-04-04T02:27:56;102965.84;;;1.15;78.36
61018;BME280;48171;51.550;5.434;2023-04-04T02:30:22;102966.56;;;1.12;78.94
61018;BME280;48171;51.550;5.434;2023-04-04T02:32:47;102963.84;;;1.11;78.28
61018;BME280;48171;51.550;5.434;2023-04-04T02:35:13;102973.38;;;1.10;78.24
61018;BME280;48171;51.550;5.434;2023-04-04T02:37:38;102978.47;;;1.09;78.06
61018;BME280;48171;51.550;5.434;2023-04-04T02:40:04;102979.38;;;1.09;78.29
61018;BME280;48171;51.550;5.434;2023-04-04T02:42:29;102971.59;;;1.09;77.96
61018;BME280;48171;51.550;5.434;2023-04-04T02:44:55;102967.97;;;1.07;77.80
61018;BME280;48171;51.550;5.434;2023-04-04T02:47:20;102966.44;;;1.11;78.20
61018;BME280;48171;51.550;5.434;2023-04-04T02:49:46;102964.78;;;1.11;78.15
61018;BME280;48171;51.550;5.434;2023-04-04T02:52:11;102959.56;;;1.11;78.01
61018;BME280;48171;51.550;5.434;2023-04-04T02:54:36;102953.34;;;1.09;78.05
61018;BME280;48171;51.550;5.434;2023-04-04T02:57:02;102945.34;;;1.06;78.40
61018;BME280;48171;51.550;5.434;2023-04-04T02:59:28;102940.53;;;0.99;78.33
61018;BME280;48171;51.550;5.434;2023-04-04T03:01:53;102954.63;;;1.03;78.48
61018;BME280;48171;51.550;5.434;2023-04-04T03:04:19;102950.94;;;0.99;78.52
61018;BME280;48171;51.550;5.434;2023-04-04T03:06:44;102951.72;;;0.98;78.42
61018;BME280;48171;51.550;5.434;2023-04-04T03:09:12;102958.44;;;0.94;77.96
61018;BME280;48171;51.550;5.434;2023-04-04T03:11:38;102952.34;;;0.94;78.08
61018;BME280;48171;51.550;5.434;2023-04-04T03:14:03;102949.63;;;0.92;77.82
61018;BME280;48171;51.550;5.434;2023-04-04T03:16:28;102957.44;;;0.92;78.23
61018;BME280;48171;51.550;5.434;2023-04-04T03:18:54;102960.13;;;0.94;78.14
61018;BME280;48171;51.550;5.434;2023-04-04T03:21:20;102959.25;;;0.93;77.84
61018;BME280;48171;51.550;5.434;2023-04-04T03:23:45;102953.03;;;0.91;77.70
61018;BME280;48171;51.550;5.434;2023-04-04T03:26:10;102954.81;;;0.92;78.47
61018;BME280;48171;51.550;5.434;2023-04-04T03:28:36;102957.31;;;0.91;77.21
61018;BME280;48171;51.550;5.434;2023-04-04T03:31:04;102953.03;;;0.91;77.68
61018;BME280;48171;51.550;5.434;2023-04-04T03:33:30;102951.09;;;0.89;77.98
61018;BME280;48171;51.550;5.434;2023-04-04T03:35:57;102946.84;;;0.89;78.00
61018;BME280;48171;51.550;5.434;2023-04-04T03:38:22;102941.53;;;0.88;77.88
61018;BME280;48171;51.550;5.434;2023-04-04T03:40:47;102951.03;;;0.87;77.85
61018;BME280;48171;51.550;5.434;2023-04-04T03:43:13;102943.13;;;0.86;77.96
61018;BME280;48171;51.550;5.434;2023-04-04T03:45:38;102937.69;;;0.83;78.64
61018;BME280;48171;51.550;5.434;2023-04-04T03:48:04;102930.47;;;0.78;78.65
61018;BME280;48171;51.550;5.434;2023-04-04T03:50:29;102931.19;;;0.76;78.84
61018;BME280;48171;51.550;5.434;2023-04-04T03:52:55;102928.41;;;0.73;78.56
61018;BME280;48171;51.550;5.434;2023-04-04T03:55:22;102925.56;;;0.70;78.92
61018;BME280;48171;51.550;5.434;2023-04-04T03:57:47;102922.88;;;0.68;79.51
61018;BME280;48171;51.550;5.434;2023-04-04T04:00:13;102922.69;;;0.65;80.00
61018;BME280;48171;51.550;5.434;2023-04-04T04:02:38;102924.16;;;0.62;80.58
61018;BME280;48171;51.550;5.434;2023-04-04T04:05:04;102925.66;;;0.58;80.35
61018;BME280;48171;51.550;5.434;2023-04-04T04:07:30;102931.44;;;0.54;80.04
61018;BME280;48171;51.550;5.434;2023-04-04T04:09:55;102938.06;;;0.49;80.43
61018;BME280;48171;51.550;5.434;2023-04-04T04:12:20;102937.84;;;0.46;80.63
61018;BME280;48171;51.550;5.434;2023-04-04T04:14:45;102941.91;;;0.42;80.40
61018;BME280;48171;51.550;5.434;2023-04-04T04:17:11;102936.63;;;0.41;80.36
61018;BME280;48171;51.550;5.434;2023-04-04T04:19:36;102934.69;;;0.38;81.06
61018;BME280;48171;51.550;5.434;2023-04-04T04:22:01;102932.91;;;0.37;81.36
61018;BME280;48171;51.550;5.434;2023-04-04T04:24:27;102938.00;;;0.35;80.98
61018;BME280;48171;51.550;5.434;2023-04-04T04:26:52;102931.00;;;0.34;81.27
61018;BME280;48171;51.550;5.434;2023-04-04T04:29:17;102929.97;;;0.32;81.44
61018;BME280;48171;51.550;5.434;2023-04-04T04:31:42;102926.38;;;0.30;81.36
61018;BME280;48171;51.550;5.434;2023-04-04T04:34:07;102924.34;;;0.26;81.37
61018;BME280;48171;51.550;5.434;2023-04-04T04:36:34;102932.97;;;0.25;81.53
61018;BME280;48171;51.550;5.434;2023-04-04T04:38:59;102927.47;;;0.21;82.02
61018;BME280;48171;51.550;5.434;2023-04-04T04:41:25;102932.75;;;0.22;82.33
61018;BME280;48171;51.550;5.434;2023-04-04T04:43:51;102921.25;;;0.18;83.07
61018;BME280;48171;51.550;5.434;2023-04-04T04:46:17;102928.25;;;0.19;82.79
61018;BME280;48171;51.550;5.434;2023-04-04T04:48:42;102924.53;;;0.16;82.49
61018;BME280;48171;51.550;5.434;2023-04-04T04:51:07;102933.13;;;0.15;82.44
61018;BME280;48171;51.550;5.434;2023-04-04T04:53:33;102935.50;;;0.12;82.63
61018;BME280;48171;51.550;5.434;2023-04-04T04:55:58;102950.91;;;0.09;83.50
61018;BME280;48171;51.550;5.434;2023-04-04T04:58:24;102941.97;;;0.05;83.43
61018;BME280;48171;51.550;5.434;2023-04-04T05:00:53;102952.50;;;0.07;82.31
61018;BME280;48171;51.550;5.434;2023-04-04T05:03:19;102950.00;;;0.08;82.28
61018;BME280;48171;51.550;5.434;2023-04-04T05:05:44;102959.72;;;0.11;81.90
61018;BME280;48171;51.550;5.434;2023-04-04T05:08:10;102964.00;;;0.10;82.47
61018;BME280;48171;51.550;5.434;2023-04-04T05:10:35;102970.00;;;0.09;83.06
61018;BME280;48171;51.550;5.434;2023-04-04T05:13:00;102963.66;;;0.06;83.26
61018;BME280;48171;51.550;5.434;2023-04-04T05:15:26;102960.28;;;0.07;83.27
61018;BME280;48171;51.550;5.434;2023-04-04T05:17:53;102962.88;;;0.07;83.16
61018;BME280;48171;51.550;5.434;2023-04-04T05:20:18;102962.88;;;0.07;83.50
61018;BME280;48171;51.550;5.434;2023-04-04T05:22:44;102959.16;;;0.03;83.64
61018;BME280;48171;51.550;5.434;2023-04-04T05:25:10;102953.06;;;0.03;84.28
61018;BME280;48171;51.550;5.434;2023-04-04T05:27:36;102946.44;;;-0.06;84.49
61018;BME280;48171;51.550;5.434;2023-04-04T05:30:01;102958.97;;;0.00;84.39
61018;BME280;48171;51.550;5.434;2023-04-04T05:32:26;102957.03;;;-0.03;84.83
61018;BME280;48171;51.550;5.434;2023-04-04T05:34:52;102958.84;;;-0.02;85.18
61018;BME280;48171;51.550;5.434;2023-04-04T05:37:17;102956.13;;;-0.03;84.85
61018;BME280;48171;51.550;5.434;2023-04-04T05:39:42;102961.34;;;-0.03;84.52
61018;BME280;48171;51.550;5.434;2023-04-04T05:42:07;102960.44;;;-0.04;84.82
61018;BME280;48171;51.550;5.434;2023-04-04T05:44:33;102969.91;;;-0.04;85.69
61018;BME280;48171;51.550;5.434;2023-04-04T05:46:58;102972.50;;;-0.04;86.13
61018;BME280;48171;51.550;5.434;2023-04-04T05:49:23;102977.81;;;-0.03;85.94
61018;BME280;48171;51.550;5.434;2023-04-04T05:51:48;102979.75;;;0.00;85.25
61018;BME280;48171;51.550;5.434;2023-04-04T05:54:14;102978.94;;;0.01;84.92
61018;BME280;48171;51.550;5.434;2023-04-04T05:56:39;102985.97;;;0.02;85.12
61018;BME280;48171;51.550;5.434;2023-04-04T05:59:05;102978.25;;;0.04;85.08
61018;BME280;48171;51.550;5.434;2023-04-04T06:01:30;102974.06;;;0.06;84.93
61018;BME280;48171;51.550;5.434;2023-04-04T06:03:55;102975.06;;;0.08;84.90
61018;BME280;48171;51.550;5.434;2023-04-04T06:06:21;102977.09;;;0.12;85.13
61018;BME280;48171;51.550;5.434;2023-04-04T06:08:46;102975.50;;;0.14;85.17
61018;BME280;48171;51.550;5.434;2023-04-04T06:11:11;102967.50;;;0.11;85.56
61018;BME280;48171;51.550;5.434;2023-04-04T06:13:37;102973.13;;;0.17;85.58
61018;BME280;48171;51.550;5.434;2023-04-04T06:16:02;102978.44;;;0.18;86.11
61018;BME280;48171;51.550;5.434;2023-04-04T06:18:28;102977.50;;;0.18;86.98
61018;BME280;48171;51.550;5.434;2023-04-04T06:20:53;102974.13;;;0.19;86.83
61018;BME280;48171;51.550;5.434;2023-04-04T06:23:18;102987.56;;;0.25;87.01
61018;BME280;48171;51.550;5.434;2023-04-04T06:25:44;102984.16;;;0.26;87.21
61018;BME280;48171;51.550;5.434;2023-04-04T06:28:09;102979.06;;;0.28;87.24
61018;BME280;48171;51.550;5.434;2023-04-04T06:30:35;102984.25;;;0.28;86.82
61018;BME280;48171;51.550;5.434;2023-04-04T06:33:03;102994.19;;;0.33;86.67
61018;BME280;48171;51.550;5.434;2023-04-04T06:35:28;103001.28;;;0.36;86.09
61018;BME280;48171;51.550;5.434;2023-04-04T06:37:54;102995.44;;;0.38;85.80
61018;BME280;48171;51.550;5.434;2023-04-04T06:40:20;102998.22;;;0.42;85.89
61018;BME280;48171;51.550;5.434;2023-04-04T06:42:49;102996.75;;;0.45;84.98
61018;BME280;48171;51.550;5.434;2023-04-04T06:45:16;102997.75;;;0.47;84.18
61018;BME280;48171;51.550;5.434;2023-04-04T06:47:42;103002.38;;;0.51;83.68
61018;BME280;48171;51.550;5.434;2023-04-04T06:50:08;102992.16;;;0.54;83.24
61018;BME280;48171;51.550;5.434;2023-04-04T06:52:33;103001.09;;;0.58;83.14
61018;BME280;48171;51.550;5.434;2023-04-04T06:54:59;103006.50;;;0.61;82.75
61018;BME280;48171;51.550;5.434;2023-04-04T06:57:24;103002.31;;;0.63;82.66
61018;BME280;48171;51.550;5.434;2023-04-04T06:59:49;102999.13;;;0.67;82.67
61018;BME280;48171;51.550;5.434;2023-04-04T07:02:15;102992.44;;;0.71;83.02
61018;BME280;48171;51.550;5.434;2023-04-04T07:04:40;103005.63;;;0.74;84.21
61018;BME280;48171;51.550;5.434;2023-04-04T07:07:05;103004.25;;;0.79;84.33
61018;BME280;48171;51.550;5.434;2023-04-04T07:09:31;103002.84;;;0.84;84.76
61018;BME280;48171;51.550;5.434;2023-04-04T07:11:56;103004.88;;;0.88;83.93
61018;BME280;48171;51.550;5.434;2023-04-04T07:14:22;103001.66;;;0.92;82.75
61018;BME280;48171;51.550;5.434;2023-04-04T07:16:49;103003.09;;;1.00;81.77
61018;BME280;48171;51.550;5.434;2023-04-04T07:19:15;103005.19;;;1.06;81.10
61018;BME280;48171;51.550;5.434;2023-04-04T07:21:41;103002.81;;;1.09;81.37
61018;BME280;48171;51.550;5.434;2023-04-04T07:24:06;102999.91;;;1.18;80.93
61018;BME280;48171;51.550;5.434;2023-04-04T07:26:32;103002.81;;;1.23;82.40
61018;BME280;48171;51.550;5.434;2023-04-04T07:28:59;102992.69;;;1.27;82.71
61018;BME280;48171;51.550;5.434;2023-04-04T07:31:24;102995.63;;;1.32;83.16
61018;BME280;48171;51.550;5.434;2023-04-04T07:33:50;102983.50;;;1.32;83.01
61018;BME280;48171;51.550;5.434;2023-04-04T07:36:17;102988.50;;;1.43;83.84
61018;BME280;48171;51.550;5.434;2023-04-04T07:38:43;102981.91;;;1.48;83.70
61018;BME280;48171;51.550;5.434;2023-04-04T07:41:08;102981.38;;;1.53;83.47
61018;BME280;48171;51.550;5.434;2023-04-04T07:43:35;102991.19;;;1.57;83.68
61018;BME280;48171;51.550;5.434;2023-04-04T07:46:01;102992.50;;;1.64;83.39
61018;BME280;48171;51.550;5.434;2023-04-04T07:48:26;102990.88;;;1.66;81.56
61018;BME280;48171;51.550;5.434;2023-04-04T07:50:52;102986.84;;;1.71;80.21
61018;BME280;48171;51.550;5.434;2023-04-04T07:53:17;102987.16;;;1.76;79.15
61018;BME280;48171;51.550;5.434;2023-04-04T07:55:42;102982.13;;;1.79;79.16
61018;BME280;48171;51.550;5.434;2023-04-04T07:58:07;102988.63;;;1.86;80.12
61018;BME280;48171;51.550;5.434;2023-04-04T08:00:33;102989.72;;;1.89;79.00
61018;BME280;48171;51.550;5.434;2023-04-04T08:02:58;102987.41;;;1.94;78.42
61018;BME280;48171;51.550;5.434;2023-04-04T08:05:23;102983.13;;;1.94;78.12
61018;BME280;48171;51.550;5.434;2023-04-04T08:07:49;102986.91;;;1.99;78.37
61018;BME280;48171;51.550;5.434;2023-04-04T08:10:14;102985.38;;;2.03;78.49
61018;BME280;48171;51.550;5.434;2023-04-04T08:12:43;102988.47;;;2.11;78.28
61018;BME280;48171;51.550;5.434;2023-04-04T08:15:09;102991.47;;;2.17;78.55
61018;BME280;48171;51.550;5.434;2023-04-04T08:17:35;102993.56;;;2.23;79.42
61018;BME280;48171;51.550;5.434;2023-04-04T08:20:01;102999.25;;;2.30;78.28
61018;BME280;48171;51.550;5.434;2023-04-04T08:22:28;103002.91;;;2.34;75.48
61018;BME280;48171;51.550;5.434;2023-04-04T08:24:53;102999.91;;;2.41;76.51
61018;BME280;48171;51.550;5.434;2023-04-04T08:27:18;102991.34;;;2.44;74.74
61018;BME280;48171;51.550;5.434;2023-04-04T08:29:44;102995.44;;;2.53;73.69
61018;BME280;48171;51.550;5.434;2023-04-04T08:32:10;102991.38;;;2.58;73.95
61018;BME280;48171;51.550;5.434;2023-04-04T08:34:36;102990.78;;;2.63;73.12
61018;BME280;48171;51.550;5.434;2023-04-04T08:37:02;102988.69;;;2.72;73.76
61018;BME280;48171;51.550;5.434;2023-04-04T08:39:28;102983.69;;;2.75;72.80
61018;BME280;48171;51.550;5.434;2023-04-04T08:42:05;102981.50;;;2.83;70.68
61018;BME280;48171;51.550;5.434;2023-04-04T08:44:31;102986.03;;;2.85;68.71
61018;BME280;48171;51.550;5.434;2023-04-04T08:46:58;102976.63;;;2.89;66.73
61018;BME280;48171;51.550;5.434;2023-04-04T08:49:27;102980.44;;;2.94;68.52
61018;BME280;48171;51.550;5.434;2023-04-04T08:51:55;102979.69;;;2.96;65.56
61018;BME280;48171;51.550;5.434;2023-04-04T08:54:21;102983.41;;;3.00;65.16
61018;BME280;48171;51.550;5.434;2023-04-04T08:56:47;102977.44;;;3.03;65.29
61018;BME280;48171;51.550;5.434;2023-04-04T08:59:12;102975.03;;;3.06;65.22
61018;BME280;48171;51.550;5.434;2023-04-04T09:01:39;102980.50;;;3.10;64.02
61018;BME280;48171;51.550;5.434;2023-04-04T09:04:05;102972.88;;;3.13;65.97
61018;BME280;48171;51.550;5.434;2023-04-04T09:06:31;102974.00;;;3.18;65.22
61018;BME280;48171;51.550;5.434;2023-04-04T09:08:57;102978.84;;;3.27;67.79
61018;BME280;48171;51.550;5.434;2023-04-04T09:11:24;102980.94;;;3.33;65.07
61018;BME280;48171;51.550;5.434;2023-04-04T09:13:51;102975.06;;;3.37;64.31
61018;BME280;48171;51.550;5.434;2023-04-04T09:16:16;102971.09;;;3.44;66.47
61018;BME280;48171;51.550;5.434;2023-04-04T09:18:42;102975.13;;;3.53;65.44
61018;BME280;48171;51.550;5.434;2023-04-04T09:21:12;102968.63;;;3.62;67.13
61018;BME280;48171;51.550;5.434;2023-04-04T09:23:37;102979.44;;;3.68;63.18
61018;BME280;48171;51.550;5.434;2023-04-04T09:26:03;102977.16;;;3.74;64.82
61018;BME280;48171;51.550;5.434;2023-04-04T09:28:30;102976.56;;;3.79;64.86
61018;BME280;48171;51.550;5.434;2023-04-04T09:30:56;102970.13;;;3.89;67.99
61018;BME280;48171;51.550;5.434;2023-04-04T09:33:24;102973.09;;;3.95;65.33
61018;BME280;48171;51.550;5.434;2023-04-04T09:36:03;102971.78;;;4.04;66.70
61018;BME280;48171;51.550;5.434;2023-04-04T09:38:29;102973.19;;;4.13;68.49
61018;BME280;48171;51.550;5.434;2023-04-04T09:40:55;102973.59;;;4.21;67.63
61018;BME280;48171;51.550;5.434;2023-04-04T09:43:24;102972.09;;;4.26;64.01
61018;BME280;48171;51.550;5.434;2023-04-04T09:45:50;102967.22;;;4.32;65.22
61018;BME280;48171;51.550;5.434;2023-04-04T09:48:32;102966.81;;;4.41;62.80
61018;BME280;48171;51.550;5.434;2023-04-04T09:50:59;102967.88;;;4.45;63.13
61018;BME280;48171;51.550;5.434;2023-04-04T09:53:25;102967.13;;;4.47;60.48
61018;BME280;48171;51.550;5.434;2023-04-04T09:55:52;102962.03;;;4.50;60.22
61018;BME280;48171;51.550;5.434;2023-04-04T09:58:25;102953.38;;;4.51;59.39
61018;BME280;48171;51.550;5.434;2023-04-04T10:00:58;102964.75;;;4.52;57.52
61018;BME280;48171;51.550;5.434;2023-04-04T10:03:25;102967.53;;;4.55;60.15
61018;BME280;48171;51.550;5.434;2023-04-04T10:06:08;102950.41;;;4.61;58.47
61018;BME280;48171;51.550;5.434;2023-04-04T10:08:39;102949.91;;;4.69;58.65
61018;BME280;48171;51.550;5.434;2023-04-04T10:11:08;102952.69;;;4.72;59.86
61018;BME280;48171;51.550;5.434;2023-04-04T10:13:35;102959.97;;;4.77;59.88
61018;BME280;48171;51.550;5.434;2023-04-04T10:16:02;102957.41;;;4.79;58.47
61018;BME280;48171;51.550;5.434;2023-04-04T10:18:29;102956.75;;;4.83;58.19
61018;BME280;48171;51.550;5.434;2023-04-04T10:20:57;102943.78;;;4.86;57.70
61018;BME280;48171;51.550;5.434;2023-04-04T10:23:24;102950.00;;;4.88;55.42
61018;BME280;48171;51.550;5.434;2023-04-04T10:25:57;102950.19;;;4.91;56.74
61018;BME280;48171;51.550;5.434;2023-04-04T10:28:23;102948.66;;;4.96;57.90
61018;BME280;48171;51.550;5.434;2023-04-04T10:31:19;102946.44;;;5.04;59.63
61018;BME280;48171;51.550;5.434;2023-04-04T10:36:55;102945.94;;;5.11;56.45
61018;BME280;48171;51.550;5.434;2023-04-04T10:39:28;102943.53;;;5.16;56.08
61018;BME280;48171;51.550;5.434;2023-04-04T10:41:54;102940.25;;;5.20;55.85
61018;BME280;48171;51.550;5.434;2023-04-04T10:44:33;102935.38;;;5.28;58.01
61018;BME280;48171;51.550;5.434;2023-04-04T10:47:17;102932.22;;;5.35;57.54
61018;BME280;48171;51.550;5.434;2023-04-04T10:49:44;102925.47;;;5.40;57.92
61018;BME280;48171;51.550;5.434;2023-04-04T10:52:18;102918.88;;;5.48;58.17
61018;BME280;48171;51.550;5.434;2023-04-04T10:54:45;102923.66;;;5.57;56.88
61018;BME280;48171;51.550;5.434;2023-04-04T10:57:12;102913.41;;;5.61;56.87
61018;BME280;48171;51.550;5.434;2023-04-04T11:00:00;102917.19;;;5.68;56.99
61018;BME280;48171;51.550;5.434;2023-04-04T11:02:48;102920.22;;;5.77;58.69
61018;BME280;48171;51.550;5.434;2023-04-04T11:08:00;102918.91;;;5.87;55.88
61018;BME280;48171;51.550;5.434;2023-04-04T11:10:28;102909.56;;;5.92;57.41
61018;BME280;48171;51.550;5.434;2023-04-04T11:12:55;102906.09;;;5.93;54.25
61018;BME280;48171;51.550;5.434;2023-04-04T11:15:23;102900.13;;;5.96;54.41
61018;BME280;48171;51.550;5.434;2023-04-04T11:18:04;102900.25;;;5.99;55.05
61018;BME280;48171;51.550;5.434;2023-04-04T11:20:34;102883.75;;;6.01;56.46
61018;BME280;48171;51.550;5.434;2023-04-04T11:25:33;102888.56;;;6.12;53.72
61018;BME280;48171;51.550;5.434;2023-04-04T11:28:04;102892.44;;;6.20;58.03
61018;BME280;48171;51.550;5.434;2023-04-04T11:30:30;102888.28;;;6.25;53.60
61018;BME280;48171;51.550;5.434;2023-04-04T11:32:57;102885.66;;;6.25;53.70
61018;BME280;48171;51.550;5.434;2023-04-04T11:35:23;102891.06;;;6.28;54.21
61018;BME280;48171;51.550;5.434;2023-04-04T11:40:33;102888.06;;;6.40;53.55
61018;BME280;48171;51.550;5.434;2023-04-04T11:42:59;102877.78;;;6.45;53.24
61018;BME280;48171;51.550;5.434;2023-04-04T11:45:28;102876.16;;;6.48;51.58
61018;BME280;48171;51.550;5.434;2023-04-04T11:47:56;102875.44;;;6.52;53.46
61018;BME280;48171;51.550;5.434;2023-04-04T11:50:21;102875.66;;;6.57;52.60
61018;BME280;48171;51.550;5.434;2023-04-04T11:52:48;102876.88;;;6.65;55.57
61018;BME280;48171;51.550;5.434;2023-04-04T11:55:15;102875.56;;;6.76;53.05
61018;BME280;48171;51.550;5.434;2023-04-04T11:57:41;102866.94;;;6.79;52.23
61018;BME280;48171;51.550;5.434;2023-04-04T12:00:07;102857.50;;;6.84;54.12
61018;BME280;48171;51.550;5.434;2023-04-04T12:02:34;102863.78;;;6.88;47.85
61018;BME280;48171;51.550;5.434;2023-04-04T12:04:59;102866.72;;;6.95;52.21
61018;BME280;48171;51.550;5.434;2023-04-04T12:07:25;102859.16;;;7.03;51.03
61018;BME280;48171;51.550;5.434;2023-04-04T12:09:52;102860.16;;;7.07;49.13
61018;BME280;48171;51.550;5.434;2023-04-04T12:12:18;102860.41;;;7.13;50.82
61018;BME280;48171;51.550;5.434;2023-04-04T12:14:44;102850.91;;;7.16;51.89
61018;BME280;48171;51.550;5.434;2023-04-04T12:17:09;102848.34;;;7.18;49.40
61018;BME280;48171;51.550;5.434;2023-04-04T12:19:36;102833.47;;;7.18;49.36
61018;BME280;48171;51.550;5.434;2023-04-04T12:22:03;102842.44;;;7.24;48.39
61018;BME280;48171;51.550;5.434;2023-04-04T12:24:28;102842.69;;;7.30;50.16
61018;BME280;48171;51.550;5.434;2023-04-04T12:26:54;102835.91;;;7.36;51.03
61018;BME280;48171;51.550;5.434;2023-04-04T12:29:21;102834.53;;;7.46;50.52
61018;BME280;48171;51.550;5.434;2023-04-04T12:31:47;102827.03;;;7.57;52.48
61018;BME280;48171;51.550;5.434;2023-04-04T12:34:23;102823.16;;;7.70;52.85
61018;BME280;48171;51.550;5.434;2023-04-04T12:36:52;102826.22;;;7.82;52.91
61018;BME280;48171;51.550;5.434;2023-04-04T12:39:20;102831.66;;;7.87;51.93
61018;BME280;48171;51.550;5.434;2023-04-04T12:41:53;102824.56;;;7.86;47.79
61018;BME280;48171;51.550;5.434;2023-04-04T12:44:29;102815.97;;;7.90;49.95
61018;BME280;48171;51.550;5.434;2023-04-04T12:46:56;102816.88;;;7.90;48.78
61018;BME280;48171;51.550;5.434;2023-04-04T12:49:31;102809.97;;;7.94;49.24
61018;BME280;48171;51.550;5.434;2023-04-04T12:51:57;102812.09;;;8.04;52.14
61018;BME280;48171;51.550;5.434;2023-04-04T12:54:31;102810.41;;;8.06;47.45
61018;BME280;48171;51.550;5.434;2023-04-04T12:56:58;102804.44;;;8.12;49.42
61018;BME280;48171;51.550;5.434;2023-04-04T12:59:35;102800.44;;;8.23;52.29
61018;BME280;48171;51.550;5.434;2023-04-04T13:02:07;102786.69;;;8.32;49.86
61018;BME280;48171;51.550;5.434;2023-04-04T13:04:35;102786.19;;;8.42;49.38
61018;BME280;48171;51.550;5.434;2023-04-04T13:07:01;102771.31;;;8.43;47.10
61018;BME280;48171;51.550;5.434;2023-04-04T13:09:28;102777.50;;;8.45;45.67
61018;BME280;48171;51.550;5.434;2023-04-04T13:11:57;102772.25;;;8.45;45.74